Main page
METAR-TAF:

METAR-TAF

Airports :

Jacksons International Airport

Port Moresby, Papua New Guinea

latitude: 09-26S, longitude: 147-13E, elevation: 38 m

Current weather observation

The report was made 31 minutes ago, at 23:00 UTC
Wind 10 kt from the North/Northwest
Temperature 25°C
Humidity 94%
Pressure 1009 hPa
Visibility 10 km or more
Few clouds at a height of 1500 ft
Scattered clouds at a height of 5000 ft

METAR: AYPY 212300Z 33010KT 9999 RERA FEW015 SCT050 25/24 Q1009

Time: 09:31 (23:31 UTC)

Forecast

The report was made 8 hours and 31 minutes ago, at 15:00 UTC
Forecast valid from 21 at 18 UTC to 22 at 18 UTC
Wind 5 kt from the North/Northwest
Visibility 10 km or more
Scattered clouds at a height of 1600 ft
Broken clouds at a height of 12000 ft
light rain showers
From 21 at 2200 UTC
Wind 7 kt from the North/Northwest
Visibility 10 km or more
Scattered clouds at a height of 1800 ft
Broken clouds at a height of 14000 ft

TAF: AYPY 211500Z 2118/2218 34005KT 9999 -SHRA SCT016 BKN120 FM212200 34007KT 9999 SCT018 BKN140

Weather observations and forecasts of more than 4000 airports (METAR and TAF reports).

The available stations are represented by yellow and red dots on the map.

Hover mouse over dot to see the name of the station.

Then click to see weather observations and forecasts.

To change the map : click on the green buttons with a black cross to zoom in, on the green button with a dash to zoom out, or on the green arrows for adjacent maps.


METAR-TAF: